createdAt,value
2019-06-10T00:00:55.341Z,16.09
2019-06-10T00:01:55.486Z,16.01
2019-06-10T00:02:55.568Z,15.97
2019-06-10T00:03:55.515Z,15.92
2019-06-10T00:04:55.570Z,15.90
2019-06-10T00:05:55.664Z,15.90
2019-06-10T00:06:55.771Z,15.92
2019-06-10T00:07:55.823Z,15.95
2019-06-10T00:08:56.030Z,16.00
2019-06-10T00:09:56.167Z,16.02
2019-06-10T00:10:56.187Z,16.05
2019-06-10T00:11:56.097Z,16.02
2019-06-10T00:12:55.450Z,16.02
2019-06-10T00:13:54.999Z,16.04
2019-06-10T00:14:54.993Z,16.02
2019-06-10T00:15:55.027Z,16.04
2019-06-10T00:16:54.989Z,16.04
2019-06-10T00:18:16.263Z,16.02
2019-06-10T00:18:55.971Z,16.01
2019-06-10T00:19:54.919Z,15.95
2019-06-10T00:20:54.953Z,15.95
2019-06-10T00:21:54.903Z,15.94
2019-06-10T00:22:54.919Z,15.92
2019-06-10T00:23:54.884Z,15.92
2019-06-10T00:24:54.872Z,15.92
2019-06-10T00:25:54.859Z,15.94
2019-06-10T00:26:54.931Z,15.94
2019-06-10T00:27:54.861Z,15.94
2019-06-10T00:28:54.900Z,15.95
2019-06-10T00:29:54.810Z,15.95
2019-06-10T00:30:54.801Z,15.98
2019-06-10T00:31:54.821Z,15.98
2019-06-10T00:32:54.776Z,15.98
2019-06-10T00:33:54.759Z,15.97
2019-06-10T00:34:54.800Z,15.98
2019-06-10T00:35:54.746Z,15.97
2019-06-10T00:36:54.772Z,15.92
2019-06-10T00:37:54.770Z,15.91
2019-06-10T00:38:54.725Z,15.86
2019-06-10T00:39:54.703Z,15.84
2019-06-10T00:40:54.692Z,15.80
2019-06-10T00:41:54.681Z,15.83
2019-06-10T00:42:54.664Z,15.80
2019-06-10T00:43:54.711Z,15.72
2019-06-10T00:44:54.694Z,15.68
2019-06-10T00:45:54.665Z,15.62
2019-06-10T00:46:54.639Z,15.57
2019-06-10T00:48:07.594Z,15.52
2019-06-10T00:48:55.630Z,15.51
2019-06-10T00:49:54.589Z,15.51
2019-06-10T00:50:54.597Z,15.47
2019-06-10T00:51:54.582Z,15.49
2019-06-10T00:52:54.648Z,15.49
2019-06-10T00:53:54.578Z,15.51
2019-06-10T00:54:54.560Z,15.52
2019-06-10T00:55:54.540Z,15.54
2019-06-10T00:56:54.531Z,15.55
2019-06-10T00:57:54.527Z,15.58
2019-06-10T00:58:54.633Z,15.61
2019-06-10T00:59:54.486Z,15.65
2019-06-10T01:00:54.484Z,15.67
2019-06-10T01:01:54.463Z,15.68
2019-06-10T01:02:54.450Z,15.68
2019-06-10T01:03:54.474Z,15.70
2019-06-10T01:04:54.440Z,15.72
2019-06-10T01:05:54.427Z,15.70
2019-06-10T01:06:54.405Z,15.64
2019-06-10T01:07:54.400Z,15.58
2019-06-10T01:08:54.427Z,15.52
2019-06-10T01:09:54.413Z,15.51
2019-06-10T01:10:54.379Z,15.51
2019-06-10T01:11:54.400Z,15.51
2019-06-10T01:12:54.333Z,15.51
2019-06-10T01:13:54.331Z,15.51
2019-06-10T01:14:54.390Z,15.55
2019-06-10T01:15:54.333Z,15.59
2019-06-10T01:16:54.310Z,15.61
2019-06-10T01:17:54.326Z,15.59
2019-06-10T01:18:54.315Z,15.59
2019-06-10T01:19:54.300Z,15.55
2019-06-10T01:20:54.273Z,15.52
2019-06-10T01:21:54.264Z,15.49
2019-06-10T01:22:54.249Z,15.47
2019-06-10T01:23:54.227Z,15.46
2019-06-10T01:24:54.285Z,15.43
2019-06-10T01:25:54.199Z,15.42
2019-06-10T01:26:54.198Z,15.44
2019-06-10T01:27:54.184Z,15.47
2019-06-10T01:28:54.172Z,15.51
2019-06-10T01:29:54.232Z,15.51
2019-06-10T01:30:54.270Z,15.52
2019-06-10T01:31:54.180Z,15.57
2019-06-10T01:32:54.138Z,15.59
2019-06-10T01:33:54.122Z,15.59
2019-06-10T01:34:54.114Z,15.61
2019-06-10T01:35:54.100Z,15.62
2019-06-10T01:36:54.106Z,15.58
2019-06-10T01:37:54.087Z,15.58
2019-06-10T01:38:54.076Z,15.57
2019-06-10T01:39:54.065Z,15.54
2019-06-10T01:40:54.092Z,15.52
2019-06-10T01:41:54.038Z,15.49
2019-06-10T01:42:54.026Z,15.49
2019-06-10T01:43:54.014Z,15.52
2019-06-10T01:44:54.099Z,15.52
2019-06-10T01:45:54.031Z,15.49
2019-06-10T01:46:53.973Z,15.44
2019-06-10T01:47:53.958Z,15.42
2019-06-10T01:48:53.985Z,15.40
2019-06-10T01:49:53.981Z,15.40
2019-06-10T01:50:53.968Z,15.37
2019-06-10T01:51:53.915Z,15.36
2019-06-10T01:52:53.909Z,15.37
2019-06-10T01:53:53.902Z,15.40
2019-06-10T01:54:53.909Z,15.40
2019-06-10T01:55:53.922Z,15.39
2019-06-10T01:56:53.874Z,15.40
2019-06-10T01:57:53.874Z,15.39
2019-06-10T01:58:53.898Z,15.37
2019-06-10T01:59:53.838Z,15.36
2019-06-10T02:00:53.906Z,15.33
2019-06-10T02:01:53.851Z,15.28
2019-06-10T02:02:53.828Z,15.27
2019-06-10T02:03:53.787Z,15.21
2019-06-10T02:04:53.804Z,15.17
2019-06-10T02:05:53.788Z,15.19
2019-06-10T02:06:53.765Z,15.18
2019-06-10T02:07:53.855Z,15.14
2019-06-10T02:08:53.745Z,15.10
2019-06-10T02:09:53.735Z,15.09
2019-06-10T02:10:53.753Z,15.10
2019-06-10T02:11:53.735Z,15.14
2019-06-10T02:12:53.726Z,15.14
2019-06-10T02:13:53.683Z,15.15
2019-06-10T02:14:53.670Z,15.18
2019-06-10T02:15:53.696Z,15.21
2019-06-10T02:16:53.685Z,15.22
2019-06-10T02:17:53.643Z,15.25
2019-06-10T02:19:00.273Z,15.25
2019-06-10T02:19:54.630Z,15.27
2019-06-10T02:20:53.750Z,15.27
2019-06-10T02:21:53.640Z,15.27
2019-06-10T02:22:53.634Z,15.24
2019-06-10T02:23:53.574Z,15.21
2019-06-10T02:24:53.574Z,15.17
2019-06-10T02:25:53.561Z,15.10
2019-06-10T02:26:53.688Z,15.06
2019-06-10T02:27:53.547Z,15.02
2019-06-10T02:28:53.531Z,14.89
2019-06-10T02:29:53.509Z,14.85
2019-06-10T02:30:55.759Z,14.81
2019-06-10T02:31:53.525Z,14.77
2019-06-10T02:32:53.515Z,14.72
2019-06-10T02:33:53.510Z,14.72
2019-06-10T02:35:08.174Z,14.77
2019-06-10T02:35:54.518Z,14.77
2019-06-10T02:36:53.856Z,14.81
2019-06-10T02:37:54.087Z,14.88
2019-06-10T02:38:54.127Z,14.88
2019-06-10T02:39:54.146Z,14.86
2019-06-10T02:40:54.010Z,14.81
2019-06-10T02:41:53.708Z,14.78
2019-06-10T02:42:54.089Z,14.77
2019-06-10T02:43:53.566Z,14.78
2019-06-10T02:44:54.075Z,14.79
2019-06-10T02:45:53.348Z,14.82
2019-06-10T02:46:54.385Z,14.82
2019-06-10T02:47:53.509Z,14.85
2019-06-10T02:48:54.404Z,14.85
2019-06-10T02:50:02.526Z,14.86
2019-06-10T02:50:54.501Z,14.89
2019-06-10T02:51:53.850Z,14.85
2019-06-10T02:52:53.272Z,14.84
2019-06-10T02:53:53.830Z,14.81
2019-06-10T02:54:53.807Z,14.82
2019-06-10T02:55:54.024Z,14.85
2019-06-10T02:56:53.979Z,14.85
2019-06-10T02:57:53.443Z,14.88
2019-06-10T02:58:53.615Z,14.92
2019-06-10T02:59:54.367Z,14.97
2019-06-10T03:00:54.589Z,15.00
2019-06-10T03:01:53.690Z,15.06
2019-06-10T03:02:53.199Z,15.07
2019-06-10T03:03:54.392Z,15.07
2019-06-10T03:04:53.772Z,15.09
2019-06-10T03:05:53.849Z,15.06
2019-06-10T03:06:54.258Z,15.03
2019-06-10T03:07:53.422Z,15.04
2019-06-10T03:08:55.017Z,15.02
2019-06-10T03:09:53.913Z,14.96
2019-06-10T03:10:54.823Z,14.96
2019-06-10T03:11:53.596Z,14.99
2019-06-10T03:12:53.056Z,15.02
2019-06-10T03:13:53.160Z,15.02
2019-06-10T03:14:53.033Z,15.02
2019-06-10T03:15:53.052Z,15.04
2019-06-10T03:16:53.142Z,15.04
2019-06-10T03:17:53.018Z,15.00
2019-06-10T03:18:52.981Z,14.99
2019-06-10T03:19:53.506Z,14.97
2019-06-10T03:20:52.983Z,14.97
2019-06-10T03:21:52.987Z,14.94
2019-06-10T03:22:52.952Z,14.92
2019-06-10T03:23:53.162Z,14.92
2019-06-10T03:24:52.940Z,14.85
2019-06-10T03:25:52.927Z,14.82
2019-06-10T03:26:52.893Z,14.81
2019-06-10T03:27:52.920Z,14.81
2019-06-10T03:28:52.873Z,14.81
2019-06-10T03:29:52.877Z,14.84
2019-06-10T03:30:58.144Z,14.86
2019-06-10T03:31:55.319Z,14.85
2019-06-10T03:32:55.644Z,14.86
2019-06-10T03:33:54.203Z,14.88
2019-06-10T03:34:54.929Z,14.89
2019-06-10T03:35:52.807Z,14.86
2019-06-10T03:36:53.531Z,14.82
2019-06-10T03:37:52.860Z,14.82
2019-06-10T03:38:53.695Z,14.82
2019-06-10T03:39:53.153Z,14.84
2019-06-10T03:40:52.772Z,14.82
2019-06-10T03:41:52.856Z,14.86
2019-06-10T03:42:52.805Z,14.88
2019-06-10T03:43:53.095Z,14.92
2019-06-10T03:44:52.690Z,14.96
2019-06-10T03:45:53.170Z,14.96
2019-06-10T03:46:52.743Z,14.94
2019-06-10T03:47:52.811Z,14.96
2019-06-10T03:48:52.777Z,15.00
2019-06-10T03:49:56.009Z,15.02
2019-06-10T03:50:52.650Z,15.04
2019-06-10T03:51:53.028Z,15.06
2019-06-10T03:52:52.693Z,15.07
2019-06-10T03:53:53.098Z,15.06
2019-06-10T03:54:52.640Z,15.09
2019-06-10T03:55:52.705Z,15.10
2019-06-10T03:56:52.559Z,15.10
2019-06-10T03:57:52.711Z,15.15
2019-06-10T03:58:52.642Z,15.18
2019-06-10T03:59:52.830Z,15.14
2019-06-10T04:00:52.526Z,15.09
2019-06-10T04:01:53.032Z,15.09
2019-06-10T04:02:53.214Z,15.10
2019-06-10T04:03:53.063Z,15.11
2019-06-10T04:04:52.503Z,15.17
2019-06-10T04:05:52.756Z,15.19
2019-06-10T04:06:53.147Z,15.19
2019-06-10T04:07:52.726Z,15.21
2019-06-10T04:08:52.459Z,15.27
2019-06-10T04:09:52.662Z,15.29
2019-06-10T04:10:52.423Z,15.33
2019-06-10T04:11:53.288Z,15.37
2019-06-10T04:12:52.480Z,15.44
2019-06-10T04:13:53.509Z,15.51
2019-06-10T04:14:52.372Z,15.58
2019-06-10T04:15:53.460Z,15.65
2019-06-10T04:16:52.604Z,15.73
2019-06-10T04:17:53.107Z,15.79
2019-06-10T04:18:53.412Z,15.79
2019-06-10T04:20:07.527Z,15.80
2019-06-10T04:20:53.302Z,15.86
2019-06-10T04:21:53.166Z,15.91
2019-06-10T04:22:52.406Z,15.90
2019-06-10T04:23:52.792Z,15.92
2019-06-10T04:24:52.274Z,15.97
2019-06-10T04:25:52.728Z,16.09
2019-06-10T04:26:52.361Z,16.24
2019-06-10T04:27:52.483Z,16.31
2019-06-10T04:28:53.014Z,16.35
2019-06-10T04:29:52.524Z,16.42
2019-06-10T04:30:53.575Z,16.54
2019-06-10T04:31:53.555Z,16.61
2019-06-10T04:32:52.906Z,16.68
2019-06-10T04:33:52.435Z,16.69
2019-06-10T04:34:52.991Z,16.72
2019-06-10T04:35:52.145Z,16.74
2019-06-10T04:36:52.579Z,16.75
2019-06-10T04:37:52.169Z,16.78
2019-06-10T04:38:52.538Z,16.75
2019-06-10T04:39:53.006Z,16.81
2019-06-10T04:40:52.552Z,16.84
2019-06-10T04:41:53.060Z,16.84
2019-06-10T04:42:52.556Z,16.91
2019-06-10T04:43:53.230Z,17.04
2019-06-10T04:44:52.580Z,16.99
2019-06-10T04:45:52.824Z,16.97
2019-06-10T04:46:52.149Z,16.96
2019-06-10T04:47:52.500Z,16.91
2019-06-10T04:48:53.184Z,16.90
2019-06-10T04:49:52.317Z,16.87
2019-06-10T04:50:53.410Z,16.84
2019-06-10T04:51:52.442Z,16.81
2019-06-10T04:52:52.887Z,16.79
2019-06-10T04:53:52.521Z,16.75
2019-06-10T04:54:52.728Z,16.71
2019-06-10T04:55:52.261Z,16.65
2019-06-10T04:56:52.879Z,16.66
2019-06-10T04:57:52.182Z,16.65
2019-06-10T04:58:52.487Z,16.66
2019-06-10T04:59:53.008Z,16.66
2019-06-10T05:00:52.424Z,16.68
2019-06-10T05:01:53.011Z,16.68
2019-06-10T05:02:52.289Z,16.68
2019-06-10T05:03:52.633Z,16.68
2019-06-10T05:04:53.164Z,16.71
2019-06-10T05:05:52.633Z,16.74
2019-06-10T05:06:52.678Z,16.75
2019-06-10T05:07:52.113Z,16.79
2019-06-10T05:08:53.760Z,16.81
2019-06-10T05:09:52.500Z,16.86
2019-06-10T05:10:52.940Z,16.89
2019-06-10T05:11:52.264Z,16.94
2019-06-10T05:12:52.598Z,16.99
2019-06-10T05:13:53.240Z,17.05
2019-06-10T05:14:52.650Z,17.11
2019-06-10T05:15:52.685Z,17.16
2019-06-10T05:16:54.154Z,17.19
2019-06-10T05:17:52.705Z,17.20
2019-06-10T05:18:54.603Z,17.24
2019-06-10T05:19:53.058Z,17.26
2019-06-10T05:20:58.257Z,17.29
2019-06-10T05:21:52.646Z,17.26
2019-06-10T05:22:52.857Z,17.26
2019-06-10T05:23:52.185Z,17.27
2019-06-10T05:24:52.713Z,17.31
2019-06-10T05:25:52.628Z,17.36
2019-06-10T05:26:52.692Z,17.42
2019-06-10T05:27:52.240Z,17.45
2019-06-10T05:28:52.428Z,17.46
2019-06-10T05:29:52.705Z,17.48
2019-06-10T05:30:53.177Z,17.51
2019-06-10T05:31:52.279Z,17.52
2019-06-10T05:32:52.361Z,17.56
2019-06-10T05:33:52.995Z,17.51
2019-06-10T05:34:52.789Z,17.45
2019-06-10T05:35:52.945Z,17.41
2019-06-10T05:36:52.572Z,17.42
2019-06-10T05:37:52.763Z,17.39
2019-06-10T05:38:52.623Z,17.41
2019-06-10T05:39:52.654Z,17.44
2019-06-10T05:40:52.126Z,17.46
2019-06-10T05:41:53.056Z,17.46
2019-06-10T05:42:52.851Z,17.51
2019-06-10T05:43:52.327Z,17.52
2019-06-10T05:44:52.454Z,17.59
2019-06-10T05:45:52.993Z,17.76
2019-06-10T05:46:52.836Z,17.92
2019-06-10T05:47:53.090Z,18.08
2019-06-10T05:48:52.602Z,18.28
2019-06-10T05:49:52.916Z,18.45
2019-06-10T05:51:00.133Z,18.49
2019-06-10T05:51:52.755Z,18.55
2019-06-10T05:52:52.063Z,18.58
2019-06-10T05:53:52.835Z,18.63
2019-06-10T05:54:52.179Z,18.75
2019-06-10T05:55:52.964Z,18.86
2019-06-10T05:56:52.174Z,18.89
2019-06-10T05:57:53.270Z,18.89
2019-06-10T05:58:52.442Z,18.80
2019-06-10T05:59:52.283Z,18.88
2019-06-10T06:00:53.161Z,18.90
2019-06-10T06:01:53.878Z,18.96
2019-06-10T06:02:52.297Z,18.92
2019-06-10T06:03:52.925Z,18.92
2019-06-10T06:04:53.089Z,18.95
2019-06-10T06:05:52.507Z,18.99
2019-06-10T06:06:53.149Z,18.99
2019-06-10T06:08:02.321Z,18.99
2019-06-10T06:08:53.419Z,18.99
2019-06-10T06:09:53.174Z,18.96
2019-06-10T06:10:52.759Z,19.00
2019-06-10T06:11:52.413Z,19.16
2019-06-10T06:12:52.649Z,19.27
2019-06-10T06:13:52.206Z,19.30
2019-06-10T06:14:52.784Z,19.27
2019-06-10T06:15:52.821Z,19.26
2019-06-10T06:16:53.209Z,19.27
2019-06-10T06:18:03.996Z,19.41
2019-06-10T06:18:52.645Z,19.64
2019-06-10T06:19:53.317Z,19.84
2019-06-10T06:20:52.613Z,19.82
2019-06-10T06:21:53.009Z,19.76
2019-06-10T06:22:52.250Z,19.77
2019-06-10T06:23:52.849Z,19.89
2019-06-10T06:24:52.260Z,19.92
2019-06-10T06:25:53.183Z,19.91
2019-06-10T06:26:53.279Z,19.92
2019-06-10T06:27:52.455Z,20.00
2019-06-10T06:28:53.301Z,20.00
2019-06-10T06:29:52.452Z,20.00
2019-06-10T06:30:52.820Z,19.89
2019-06-10T06:31:52.294Z,19.74
2019-06-10T06:32:53.093Z,19.70
2019-06-10T06:33:52.716Z,19.73
2019-06-10T06:34:52.681Z,19.79
2019-06-10T06:35:53.892Z,19.84
2019-06-10T06:36:52.880Z,19.79
2019-06-10T06:37:53.972Z,19.76
2019-06-10T06:38:52.883Z,19.59
2019-06-10T06:39:52.365Z,19.45
2019-06-10T06:40:53.741Z,19.33
2019-06-10T06:41:52.750Z,19.24
2019-06-10T06:42:52.546Z,19.31
2019-06-10T06:43:52.793Z,19.26
2019-06-10T06:44:52.523Z,19.21
2019-06-10T06:45:52.984Z,19.22
2019-06-10T06:46:53.091Z,19.34
2019-06-10T06:47:52.743Z,19.45
2019-06-10T06:48:52.971Z,19.45
2019-06-10T06:49:52.946Z,19.49
2019-06-10T06:51:01.681Z,19.51
2019-06-10T06:51:56.207Z,19.58
2019-06-10T06:53:18.721Z,19.62
2019-06-10T06:53:55.452Z,19.59
2019-06-10T06:54:52.901Z,19.70
2019-06-10T06:55:53.541Z,19.86
2019-06-10T06:56:53.393Z,19.96
2019-06-10T06:57:52.912Z,20.11
2019-06-10T06:58:52.435Z,20.19
2019-06-10T06:59:52.668Z,20.21
2019-06-10T07:01:01.410Z,20.24
2019-06-10T07:01:52.487Z,20.41
2019-06-10T07:02:52.813Z,20.60
2019-06-10T07:03:53.287Z,20.77
2019-06-10T07:04:52.597Z,20.92
2019-06-10T07:05:52.906Z,21.02
2019-06-10T07:06:54.975Z,21.06
2019-06-10T07:07:52.714Z,21.06
2019-06-10T07:09:03.402Z,21.09
2019-06-10T07:09:52.678Z,21.09
2019-06-10T07:10:52.225Z,21.03
2019-06-10T07:11:52.852Z,20.95
2019-06-10T07:12:52.315Z,20.82
2019-06-10T07:13:53.325Z,20.74
2019-06-10T07:14:52.484Z,20.85
2019-06-10T07:15:53.288Z,20.99
2019-06-10T07:16:52.815Z,21.03
2019-06-10T07:17:52.545Z,21.05
2019-06-10T07:18:50.636Z,21.20
2019-06-10T07:19:52.883Z,21.35
2019-06-10T07:20:50.545Z,21.32
2019-06-10T07:22:05.591Z,21.22
2019-06-10T07:22:53.338Z,21.14
2019-06-10T07:23:52.600Z,21.07
2019-06-10T07:24:52.636Z,21.05
2019-06-10T07:25:50.352Z,20.80
2019-06-10T07:26:54.308Z,20.72
2019-06-10T07:27:52.581Z,20.63
2019-06-10T07:28:50.281Z,20.67
2019-06-10T07:29:52.747Z,20.70
2019-06-10T07:30:52.656Z,20.70
2019-06-10T07:31:53.591Z,20.85
2019-06-10T07:32:52.683Z,20.99
2019-06-10T07:33:52.365Z,21.00
2019-06-10T07:34:52.321Z,20.99
2019-06-10T07:35:52.355Z,21.06
2019-06-10T07:36:52.153Z,21.18
2019-06-10T07:37:52.305Z,21.15
2019-06-10T07:38:53.572Z,21.20
2019-06-10T07:39:52.190Z,21.20
2019-06-10T07:40:50.145Z,21.22
2019-06-10T07:41:52.669Z,21.27
2019-06-10T07:42:50.170Z,21.27
2019-06-10T07:43:52.585Z,21.14
2019-06-10T07:44:50.119Z,21.14
2019-06-10T07:45:53.208Z,21.02
2019-06-10T07:46:50.059Z,21.02
2019-06-10T07:47:52.160Z,21.09
2019-06-10T07:48:53.540Z,21.22
2019-06-10T07:49:52.251Z,21.30
2019-06-10T07:50:49.998Z,21.35
2019-06-10T07:51:52.212Z,21.37
2019-06-10T07:52:49.973Z,21.42
2019-06-10T07:53:52.309Z,21.50
2019-06-10T07:54:49.938Z,21.54
2019-06-10T07:55:49.945Z,21.64
2019-06-10T07:56:50.656Z,21.67
2019-06-10T07:57:49.945Z,21.72
2019-06-10T07:58:52.536Z,21.83
2019-06-10T07:59:52.103Z,21.79
2019-06-10T08:00:49.879Z,21.82
2019-06-10T08:01:52.481Z,21.72
2019-06-10T08:02:52.999Z,21.75
2019-06-10T08:03:52.394Z,21.73
2019-06-10T08:04:49.865Z,21.64
2019-06-10T08:05:52.374Z,21.80
2019-06-10T08:06:52.402Z,22.04
2019-06-10T08:07:49.813Z,22.22
2019-06-10T08:08:49.782Z,22.47
2019-06-10T08:09:49.858Z,22.57
2019-06-10T08:10:49.851Z,22.57
2019-06-10T08:11:49.801Z,22.60
2019-06-10T08:12:49.773Z,22.47
2019-06-10T08:13:49.736Z,22.43
2019-06-10T08:14:49.734Z,22.44
2019-06-10T08:15:49.750Z,22.35
2019-06-10T08:16:49.723Z,22.38
2019-06-10T08:17:49.685Z,22.39
2019-06-10T08:19:16.092Z,22.41
2019-06-10T08:19:53.846Z,22.08
2019-06-10T08:20:49.724Z,21.91
2019-06-10T08:21:49.839Z,21.95
2019-06-10T08:22:54.385Z,21.89
2019-06-10T08:23:50.714Z,21.85
2019-06-10T08:24:49.618Z,21.93
2019-06-10T08:25:54.659Z,21.76
2019-06-10T08:26:52.922Z,21.58
2019-06-10T08:27:49.593Z,21.67
2019-06-10T08:28:49.701Z,21.80
2019-06-10T08:29:58.562Z,21.91
2019-06-10T08:30:52.959Z,21.92
2019-06-10T08:31:50.127Z,21.88
2019-06-10T08:32:53.290Z,21.95
2019-06-10T08:33:53.120Z,22.06
2019-06-10T08:34:49.510Z,22.17
2019-06-10T08:35:57.363Z,22.22
2019-06-10T08:36:53.626Z,22.23
2019-06-10T08:37:49.487Z,22.28
2019-06-10T08:38:49.455Z,22.26
2019-06-10T08:39:49.464Z,22.33
2019-06-10T08:40:49.450Z,22.41
2019-06-10T08:41:49.458Z,22.50
2019-06-10T08:42:49.446Z,22.51
2019-06-10T08:43:49.439Z,22.50
2019-06-10T08:44:49.417Z,22.55
2019-06-10T08:45:49.396Z,22.53
2019-06-10T08:46:49.403Z,22.50
2019-06-10T08:47:49.375Z,22.48
2019-06-10T08:48:49.597Z,22.50
2019-06-10T08:49:49.394Z,22.66
2019-06-10T08:50:50.194Z,22.94
2019-06-10T08:51:50.238Z,23.21
2019-06-10T08:53:05.657Z,23.43
2019-06-10T08:53:52.937Z,23.61
2019-06-10T08:54:53.638Z,23.55
2019-06-10T08:55:50.857Z,23.47
2019-06-10T08:56:50.894Z,23.36
2019-06-10T08:57:51.635Z,23.25
2019-06-10T08:58:50.829Z,23.06
2019-06-10T08:59:49.411Z,22.98
2019-06-10T09:00:49.599Z,22.93
2019-06-10T09:01:55.712Z,22.98
2019-06-10T09:02:53.648Z,22.98
2019-06-10T09:03:50.492Z,22.88
2019-06-10T09:04:50.474Z,23.06
2019-06-10T09:05:50.966Z,23.17
2019-06-10T09:06:50.818Z,23.25
2019-06-10T09:07:51.259Z,23.23
2019-06-10T09:08:53.872Z,23.10
2019-06-10T09:09:51.101Z,22.91
2019-06-10T09:10:51.579Z,22.78
2019-06-10T09:11:51.307Z,22.66
2019-06-10T09:12:54.195Z,22.60
2019-06-10T09:13:50.371Z,22.57
2019-06-10T09:14:50.634Z,22.39
2019-06-10T09:16:07.156Z,22.29
2019-06-10T09:16:51.461Z,22.28
2019-06-10T09:17:52.080Z,22.22
2019-06-10T09:18:52.062Z,22.25
2019-06-10T09:19:51.231Z,22.23
2019-06-10T09:20:52.664Z,22.25
2019-06-10T09:21:53.375Z,22.26
2019-06-10T09:23:11.209Z,22.26
2019-06-10T09:23:56.639Z,22.23
2019-06-10T09:24:53.131Z,22.28
2019-06-10T09:25:54.500Z,22.36
2019-06-10T09:26:51.393Z,22.39
2019-06-10T09:27:51.835Z,22.43
2019-06-10T09:28:52.733Z,22.32
2019-06-10T09:29:54.783Z,22.48
2019-06-10T09:30:54.052Z,22.50
2019-06-10T09:31:53.269Z,22.41
2019-06-10T09:32:53.857Z,22.47
2019-06-10T09:33:53.307Z,22.57
2019-06-10T09:34:54.744Z,22.78
2019-06-10T09:35:52.829Z,22.66
2019-06-10T09:36:56.247Z,22.51
2019-06-10T09:37:51.666Z,22.63
2019-06-10T09:38:52.773Z,22.76
2019-06-10T09:39:58.034Z,22.87
2019-06-10T09:40:57.631Z,23.02
2019-06-10T09:41:59.724Z,23.17
2019-06-10T09:42:53.004Z,23.37
2019-06-10T09:43:52.955Z,23.41
2019-06-10T09:44:51.774Z,23.44
2019-06-10T09:45:51.352Z,23.61
2019-06-10T09:46:52.057Z,23.62
2019-06-10T09:47:55.537Z,23.58
2019-06-10T09:48:53.603Z,23.32
2019-06-10T09:49:51.410Z,23.25
2019-06-10T09:50:56.636Z,23.25
2019-06-10T09:51:52.765Z,23.08
2019-06-10T09:52:53.372Z,23.02
2019-06-10T09:53:56.349Z,23.06
2019-06-10T09:54:55.710Z,23.06
2019-06-10T09:55:52.458Z,23.12
2019-06-10T09:56:50.408Z,23.20
2019-06-10T09:57:53.179Z,23.34
2019-06-10T09:58:51.163Z,23.36
2019-06-10T09:59:54.022Z,23.41
2019-06-10T10:00:53.574Z,23.46
2019-06-10T10:01:53.559Z,23.43
2019-06-10T10:02:52.067Z,23.24
2019-06-10T10:03:55.001Z,23.25
2019-06-10T10:04:54.798Z,23.51
2019-06-10T10:06:06.315Z,23.62
2019-06-10T10:06:54.368Z,23.66
2019-06-10T10:07:51.941Z,23.80
2019-06-10T10:08:53.868Z,23.88
2019-06-10T10:09:51.897Z,23.98
2019-06-10T10:10:51.974Z,23.91
2019-06-10T10:11:51.464Z,23.80
2019-06-10T10:12:51.225Z,23.65
2019-06-10T10:13:49.911Z,23.56
2019-06-10T10:14:50.211Z,23.58
2019-06-10T10:15:49.687Z,23.40
2019-06-10T10:16:52.812Z,23.50
2019-06-10T10:17:49.941Z,23.46
2019-06-10T10:18:52.098Z,23.20
2019-06-10T10:19:50.326Z,23.21
2019-06-10T10:20:49.921Z,23.31
2019-06-10T10:21:51.224Z,23.21
2019-06-10T10:22:50.601Z,23.12
2019-06-10T10:23:56.539Z,23.23
2019-06-10T10:24:49.387Z,23.24
2019-06-10T10:25:49.657Z,23.36
2019-06-10T10:26:50.875Z,23.61
2019-06-10T10:27:51.253Z,23.81
2019-06-10T10:28:51.804Z,23.78
2019-06-10T10:29:50.024Z,23.46
2019-06-10T10:30:50.511Z,23.46
2019-06-10T10:31:50.698Z,23.47
2019-06-10T10:32:50.460Z,23.40
2019-06-10T10:33:48.511Z,23.41
2019-06-10T10:34:49.845Z,23.37
2019-06-10T10:35:49.297Z,23.32
2019-06-10T10:36:48.770Z,23.37
2019-06-10T10:37:48.531Z,23.15
2019-06-10T10:38:48.849Z,23.12
2019-06-10T10:39:49.069Z,23.27
2019-06-10T10:40:50.332Z,23.51
2019-06-10T10:41:48.697Z,23.63
2019-06-10T10:42:53.950Z,23.63
2019-06-10T10:43:51.353Z,23.54
2019-06-10T10:44:51.239Z,23.61
2019-06-10T10:45:51.812Z,23.83
2019-06-10T10:46:49.316Z,23.95
2019-06-10T10:47:49.038Z,24.10
2019-06-10T10:48:49.004Z,24.21
2019-06-10T10:49:49.101Z,24.35
2019-06-10T10:50:49.186Z,24.48
2019-06-10T10:51:49.003Z,24.53
2019-06-10T10:52:48.597Z,24.53
2019-06-10T10:53:56.236Z,24.26
2019-06-10T10:54:49.410Z,23.96
2019-06-10T10:55:49.179Z,23.87
2019-06-10T10:56:49.618Z,23.98
2019-06-10T10:57:49.299Z,24.16
2019-06-10T10:58:49.227Z,24.30
2019-06-10T10:59:47.910Z,24.53
2019-06-10T11:00:50.366Z,24.66
2019-06-10T11:01:49.430Z,24.58
2019-06-10T11:02:50.681Z,24.63
2019-06-10T11:03:49.730Z,24.66
2019-06-10T11:04:48.005Z,24.80
2019-06-10T11:05:49.917Z,24.88
2019-06-10T11:06:47.939Z,24.88
2019-06-10T11:07:47.828Z,24.77
2019-06-10T11:08:48.305Z,24.70
2019-06-10T11:09:48.580Z,24.65
2019-06-10T11:10:49.506Z,24.68
2019-06-10T11:11:48.864Z,24.70
2019-06-10T11:12:49.010Z,24.70
2019-06-10T11:13:47.785Z,24.76
2019-06-10T11:14:47.743Z,24.70
2019-06-10T11:15:49.025Z,24.74
2019-06-10T11:16:49.395Z,24.69
2019-06-10T11:17:47.838Z,24.54
2019-06-10T11:18:47.703Z,24.38
2019-06-10T11:19:47.784Z,24.38
2019-06-10T11:20:47.708Z,24.33
2019-06-10T11:21:47.671Z,24.33
2019-06-10T11:22:47.700Z,24.29
2019-06-10T11:23:48.116Z,24.23
2019-06-10T11:24:48.926Z,24.36
2019-06-10T11:25:47.823Z,24.40
2019-06-10T11:26:47.875Z,24.36
2019-06-10T11:27:48.430Z,24.29
2019-06-10T11:28:47.610Z,24.16
2019-06-10T11:29:48.177Z,23.87
2019-06-10T11:30:47.581Z,23.71
2019-06-10T11:31:48.471Z,23.66
2019-06-10T11:32:47.983Z,23.63
2019-06-10T11:33:48.706Z,23.71
2019-06-10T11:34:47.732Z,23.81
2019-06-10T11:35:48.731Z,23.95
2019-06-10T11:36:48.001Z,24.02
2019-06-10T11:37:48.875Z,24.18
2019-06-10T11:38:48.587Z,24.26
2019-06-10T11:39:48.136Z,24.35
2019-06-10T11:40:47.460Z,24.47
2019-06-10T11:41:48.134Z,24.57
2019-06-10T11:42:48.356Z,24.66
2019-06-10T11:43:48.388Z,24.77
2019-06-10T11:44:48.386Z,24.96
2019-06-10T11:45:51.167Z,24.95
2019-06-10T11:46:48.634Z,24.85
2019-06-10T11:47:47.381Z,24.73
2019-06-10T11:48:47.432Z,24.61
2019-06-10T11:49:47.370Z,24.77
2019-06-10T11:50:47.369Z,24.98
2019-06-10T11:51:47.361Z,24.96
2019-06-10T11:52:47.563Z,25.01
2019-06-10T11:53:47.444Z,24.93
2019-06-10T11:54:55.144Z,24.98
2019-06-10T11:55:49.506Z,25.08
2019-06-10T11:56:47.743Z,25.18
2019-06-10T11:57:47.866Z,25.22
2019-06-10T11:58:47.906Z,25.35
2019-06-10T11:59:48.024Z,25.44
2019-06-10T12:00:48.686Z,25.55
2019-06-10T12:01:49.267Z,25.75
2019-06-10T12:02:48.224Z,26.00
2019-06-10T12:03:48.371Z,26.13
2019-06-10T12:04:48.352Z,26.03
2019-06-10T12:05:48.960Z,25.99
2019-06-10T12:06:47.189Z,26.03
2019-06-10T12:07:47.191Z,26.15
2019-06-10T12:08:47.167Z,26.15
2019-06-10T12:09:47.207Z,26.09
2019-06-10T12:10:47.177Z,26.03
2019-06-10T12:11:47.124Z,26.05
2019-06-10T12:12:47.127Z,25.98
2019-06-10T12:13:47.144Z,25.72
2019-06-10T12:14:47.117Z,25.54
2019-06-10T12:16:20.713Z,25.51
2019-06-10T12:17:17.574Z,25.50
2019-06-10T12:17:53.511Z,25.58
2019-06-10T12:18:49.047Z,25.70
2019-06-10T12:19:47.082Z,25.80
2019-06-10T12:20:47.019Z,25.77
2019-06-10T12:21:47.062Z,25.78
2019-06-10T12:22:47.004Z,25.43
2019-06-10T12:23:47.021Z,25.44
2019-06-10T12:24:46.984Z,25.63
2019-06-10T12:25:48.033Z,25.66
2019-06-10T12:26:47.054Z,25.87
2019-06-10T12:27:46.974Z,26.03
2019-06-10T12:28:47.121Z,25.90
2019-06-10T12:29:46.978Z,25.66
2019-06-10T12:30:46.942Z,25.41
2019-06-10T12:31:46.968Z,25.21
2019-06-10T12:32:46.926Z,25.13
2019-06-10T12:33:46.888Z,25.06
2019-06-10T12:34:46.914Z,24.99
2019-06-10T12:35:46.942Z,25.06
2019-06-10T12:36:46.868Z,25.03
2019-06-10T12:37:46.856Z,24.69
2019-06-10T12:38:46.879Z,24.57
2019-06-10T12:39:46.931Z,24.60
2019-06-10T12:40:46.812Z,24.63
2019-06-10T12:41:46.805Z,24.66
2019-06-10T12:42:46.797Z,24.61
2019-06-10T12:43:46.815Z,24.57
2019-06-10T12:44:46.771Z,24.63
2019-06-10T12:45:46.755Z,24.66
2019-06-10T12:46:46.832Z,24.77
2019-06-10T12:47:46.742Z,24.88
2019-06-10T12:48:46.750Z,24.85
2019-06-10T12:49:46.730Z,25.04
2019-06-10T12:50:46.703Z,25.28
2019-06-10T12:51:46.681Z,25.54
2019-06-10T12:52:46.701Z,25.80